Time;durP1;ratioP1;P1;durP2;ratioP2;P2;SDS_P1;SDS_P2;PMS_P1;PMS_P2;Temp;Humidity;BMP_temperature;BMP_pressure;BME280_temperature;BME280_humidity;BME280_pressure;Samples;Min_cycle;Max_cycle;Signal;HPM_P1;HPM_P2
2021/06/23 00:01:15;;;;;;;9.15;5.60;;;16.10;88.50;;;;;;5092590;28;20099;-51
2021/06/23 00:03:43;;;;;;;10.05;4.57;;;16.10;89.30;;;;;;5091600;28;20104;-53
2021/06/23 00:06:10;;;;;;;20.17;6.03;;;16.10;89.30;;;;;;5092506;28;20057;-53
2021/06/23 00:08:38;;;;;;;26.67;5.47;;;16.10;89.00;;;;;;5092450;28;20024;-55
2021/06/23 00:11:06;;;;;;;27.60;7.93;;;16.20;88.70;;;;;;5092108;28;20493;-55
2021/06/23 00:13:35;;;;;;;12.50;6.93;;;16.20;88.90;;;;;;5092381;28;20047;-57
2021/06/23 00:16:06;;;;;;;13.13;3.08;;;16.20;88.20;;;;;;5092060;28;20051;-55
2021/06/23 00:18:34;;;;;;;14.30;11.15;;;16.10;89.10;;;;;;5092174;28;20382;-52
2021/06/23 00:21:02;;;;;;;9.93;5.45;;;16.20;88.60;;;;;;5092057;28;20070;-52
2021/06/23 00:23:29;;;;;;;16.30;2.20;;;16.30;88.30;;;;;;5092042;28;20133;-54
2021/06/23 00:25:57;;;;;;;9.88;6.45;;;16.20;88.70;;;;;;5091364;28;20119;-55
2021/06/23 00:28:25;;;;;;;16.30;8.68;;;16.30;88.50;;;;;;5092266;28;20028;-52
2021/06/23 00:30:52;;;;;;;19.17;10.82;;;16.40;88.20;;;;;;5091793;28;20105;-55
2021/06/23 00:33:22;;;;;;;10.68;9.18;;;16.40;87.90;;;;;;5091970;28;20152;-54
2021/06/23 00:35:49;;;;;;;20.83;8.63;;;16.50;87.80;;;;;;5091893;28;20103;-56
2021/06/23 00:38:17;;;;;;;16.58;12.20;;;16.50;88.00;;;;;;5091820;28;20032;-54
2021/06/23 00:40:45;;;;;;;14.75;10.57;;;16.50;88.00;;;;;;5091976;28;20016;-55
2021/06/23 00:43:14;;;;;;;21.10;6.43;;;16.50;88.00;;;;;;5092001;28;20024;-57
2021/06/23 00:45:42;;;;;;;15.45;10.82;;;16.60;87.30;;;;;;5090817;28;20017;-53
2021/06/23 00:48:10;;;;;;;13.70;10.00;;;16.60;87.70;;;;;;5092116;28;20024;-51
2021/06/23 00:50:40;;;;;;;11.85;9.00;;;16.60;87.80;;;;;;5092061;28;20028;-53
2021/06/23 00:53:08;;;;;;;11.02;6.38;;;16.70;87.50;;;;;;5091507;28;20043;-55
2021/06/23 00:55:35;;;;;;;14.50;6.63;;;16.80;86.10;;;;;;5092065;28;20028;-55
2021/06/23 00:58:05;;;;;;;13.30;4.85;;;16.90;86.80;;;;;;5090559;28;20028;-54
2021/06/23 01:00:35;;;;;;;14.13;8.35;;;17.00;85.90;;;;;;5091879;28;20077;-55
2021/06/23 01:03:04;;;;;;;14.35;6.57;;;16.90;86.60;;;;;;5091612;28;20081;-52
2021/06/23 01:05:32;;;;;;;13.95;7.05;;;16.90;86.60;;;;;;5091166;28;20024;-54
2021/06/23 01:07:59;;;;;;;12.23;3.38;;;16.80;86.50;;;;;;5091970;28;20025;-53
2021/06/23 01:10:32;;;;;;;8.35;5.18;;;17.00;84.70;;;;;;5091945;28;20028;-50
2021/06/23 01:13:30;;;;;;;10.10;5.95;;;17.10;86.60;;;;;;5091751;28;20081;-50
2021/06/23 01:16:02;;;;;;;11.10;4.30;;;17.10;86.30;;;;;;5092132;28;20021;-56
2021/06/23 01:18:30;;;;;;;10.68;5.32;;;17.20;84.50;;;;;;5092022;28;20451;-55
2021/06/23 01:20:57;;;;;;;7.20;4.93;;;17.10;86.80;;;;;;5091425;28;20066;-53
2021/06/23 01:23:25;;;;;;;7.50;5.03;;;17.20;85.60;;;;;;5091212;28;20035;-54
2021/06/23 01:25:52;;;;;;;10.95;4.95;;;17.30;86.20;;;;;;5091474;28;20479;-58
2021/06/23 01:28:20;;;;;;;7.97;4.18;;;17.40;86.40;;;;;;5091435;28;20058;-52
2021/06/23 01:30:47;;;;;;;10.38;3.42;;;17.50;86.00;;;;;;5091495;28;20024;-53
2021/06/23 01:33:15;;;;;;;7.80;2.78;;;17.60;83.80;;;;;;5091594;28;20476;-56
2021/06/23 01:35:47;;;;;;;23.20;3.55;;;17.70;85.20;;;;;;5091641;28;20386;-52
2021/06/23 01:38:15;;;;;;;9.27;2.00;;;17.80;81.30;;;;;;5093338;28;20024;-57
2021/06/23 01:40:42;;;;;;;6.15;2.17;;;17.90;81.90;;;;;;5095389;28;20081;-55
2021/06/23 01:43:11;;;;;;;7.25;2.58;;;17.90;80.90;;;;;;5094982;28;20050;-55
2021/06/23 01:45:40;;;;;;;5.55;3.22;;;17.90;83.80;;;;;;5095468;28;20032;-56
2021/06/23 01:48:08;;;;;;;5.00;2.55;;;18.10;84.10;;;;;;5095420;28;20493;-52
2021/06/23 01:50:35;;;;;;;6.97;2.08;;;18.10;84.10;;;;;;5095272;28;20498;-54
2021/06/23 01:53:03;;;;;;;9.00;3.22;;;18.00;83.60;;;;;;5094727;28;20039;-55
2021/06/23 01:55:31;;;;;;;14.80;3.53;;;18.00;86.50;;;;;;5095145;28;20502;-56
2021/06/23 01:58:07;;;;;;;5.68;2.03;;;18.10;86.40;;;;;;5095158;28;20110;-56
2021/06/23 02:00:59;;;;;;;20.23;3.95;;;18.30;83.00;;;;;;5095006;28;20026;-56
2021/06/23 02:03:57;;;;;;;29.08;2.30;;;18.30;85.60;;;;;;5094575;28;20401;-56
2021/06/23 02:07:13;;;;;;;31.70;3.35;;;18.30;81.10;;;;;;5099812;28;20027;-50
2021/06/23 02:09:56;;;;;;;9.98;1.80;;;18.40;80.30;;;;;;5060684;28;20028;-50
2021/06/23 02:12:26;;;;;;;9.25;2.70;;;18.60;80.80;;;;;;5114940;28;20035;-49
2021/06/23 02:14:57;;;;;;;12.70;2.30;;;18.60;83.70;;;;;;5114986;28;20032;-54
2021/06/23 02:17:26;;;;;;;12.95;1.98;;;18.60;85.10;;;;;;5115287;28;20363;-49
2021/06/23 02:19:55;;;;;;;4.65;1.65;;;18.90;83.60;;;;;;5115068;28;20393;-46
2021/06/23 02:22:26;;;;;;;11.18;2.40;;;19.30;81.90;;;;;;5103049;28;21181;-56
2021/06/23 02:24:57;;;;;;;3.67;1.70;;;19.50;79.20;;;;;;5085893;28;20492;-51
2021/06/23 02:27:26;;;;;;;4.50;2.20;;;19.60;79.60;;;;;;5087817;28;20050;-56
2021/06/23 02:29:53;;;;;;;6.25;1.40;;;19.70;79.60;;;;;;5091932;28;20020;-53
2021/06/23 02:32:25;;;;;;;2.70;1.55;;;19.90;78.10;;;;;;5090067;28;20032;-51
2021/06/23 02:34:55;;;;;;;7.15;1.45;;;20.00;76.70;;;;;;5086120;28;20028;-54
2021/06/23 02:37:23;;;;;;;7.22;1.95;;;20.00;77.00;;;;;;5087703;28;20036;-52
2021/06/23 02:39:52;;;;;;;3.97;1.40;;;20.00;74.30;;;;;;5091147;28;20390;-55
2021/06/23 02:42:20;;;;;;;5.05;2.10;;;20.00;75.50;;;;;;5089355;28;20097;-56
2021/06/23 02:44:47;;;;;;;7.20;1.85;;;19.80;75.10;;;;;;5090197;28;20028;-59
2021/06/23 02:47:20;;;;;;;7.47;1.65;;;19.70;75.30;;;;;;5090658;28;20378;-51
2021/06/23 02:49:48;;;;;;;7.03;1.23;;;19.60;75.40;;;;;;5090809;28;20028;-53
2021/06/23 02:52:17;;;;;;;7.88;1.95;;;19.40;76.90;;;;;;5087740;28;20115;-54
2021/06/23 02:54:45;;;;;;;4.28;1.45;;;19.30;77.60;;;;;;5091027;28;20541;-53
2021/06/23 02:57:13;;;;;;;4.72;1.70;;;19.30;76.30;;;;;;5090224;28;20045;-52
2021/06/23 02:59:42;;;;;;;5.10;2.13;;;19.20;78.20;;;;;;5091201;28;20098;-55
2021/06/23 03:02:09;;;;;;;2.25;1.25;;;19.20;78.00;;;;;;5086889;28;20093;-57
2021/06/23 03:04:36;;;;;;;2.83;1.58;;;19.10;77.40;;;;;;5090142;28;20034;-57
2021/06/23 03:07:11;;;;;;;2.13;1.00;;;18.90;78.90;;;;;;5089677;28;20099;-56
2021/06/23 03:09:42;;;;;;;3.38;1.20;;;18.90;79.10;;;;;;5089469;28;20393;-57
2021/06/23 03:12:11;;;;;;;3.50;1.23;;;18.80;78.80;;;;;;5087455;28;20028;-58
2021/06/23 03:14:39;;;;;;;4.43;1.10;;;18.70;79.10;;;;;;5090283;28;20034;-56
2021/06/23 03:17:07;;;;;;;4.18;1.60;;;18.70;79.60;;;;;;5089754;28;20483;-57
2021/06/23 03:19:36;;;;;;;17.80;7.43;;;18.60;79.40;;;;;;5090197;28;20020;-58
2021/06/23 03:22:08;;;;;;;49.10;19.48;;;18.50;79.30;;;;;;5086167;28;20024;-58
2021/06/23 03:24:40;;;;;;;59.03;26.30;;;18.40;79.40;;;;;;5089385;28;20020;-58
2021/06/23 03:27:08;;;;;;;65.85;27.35;;;18.40;80.10;;;;;;5089348;28;20107;-58
2021/06/23 03:29:36;;;;;;;66.13;25.50;;;18.40;78.80;;;;;;5090187;28;20032;-56
2021/06/23 03:32:07;;;;;;;42.60;19.70;;;18.30;80.10;;;;;;5085896;28;20535;-55
2021/06/23 03:34:35;;;;;;;45.78;20.20;;;18.20;80.70;;;;;;5088538;28;20122;-56
2021/06/23 03:37:04;;;;;;;49.70;19.27;;;18.20;81.40;;;;;;5089588;28;20384;-58
2021/06/23 03:39:31;;;;;;;38.53;18.13;;;18.20;80.90;;;;;;5089128;28;20044;-53
2021/06/23 03:41:59;;;;;;;34.50;16.52;;;18.10;81.20;;;;;;5086656;28;20443;-57
2021/06/23 03:44:26;;;;;;;36.88;16.42;;;18.20;82.10;;;;;;5092556;28;20111;-54
2021/06/23 03:46:55;;;;;;;38.80;16.25;;;18.20;80.70;;;;;;5091358;28;20487;-54
2021/06/23 03:49:23;;;;;;;32.22;14.73;;;18.20;80.20;;;;;;5093019;28;20032;-55
2021/06/23 03:51:51;;;;;;;44.92;20.27;;;18.10;81.40;;;;;;5093119;28;20058;-55
2021/06/23 03:54:18;;;;;;;40.58;23.02;;;18.00;82.30;;;;;;5086770;28;20040;-50
2021/06/23 03:56:46;;;;;;;36.42;18.02;;;18.00;81.40;;;;;;5087731;28;20008;-54
2021/06/23 03:59:13;;;;;;;38.10;20.88;;;18.00;80.10;;;;;;5089911;28;20482;-58
2021/06/23 04:01:41;;;;;;;37.75;19.40;;;17.90;82.00;;;;;;5091348;28;20375;-52
2021/06/23 04:04:08;;;;;;;36.13;18.30;;;17.80;82.80;;;;;;5088671;28;20020;-54
2021/06/23 04:06:35;;;;;;;35.15;16.83;;;17.80;82.50;;;;;;5089185;28;20028;-51
2021/06/23 04:09:03;;;;;;;36.67;17.77;;;17.80;82.60;;;;;;5089448;28;20039;-52
2021/06/23 04:11:31;;;;;;;26.50;15.63;;;17.80;83.10;;;;;;5088704;28;20424;-52
2021/06/23 04:13:58;;;;;;;24.95;12.57;;;17.80;82.90;;;;;;5088149;28;20059;-54
2021/06/23 04:16:26;;;;;;;25.75;13.55;;;17.90;82.00;;;;;;5089123;28;20028;-56
2021/06/23 04:18:54;;;;;;;27.83;15.43;;;18.00;82.20;;;;;;5088845;28;20056;-49
2021/06/23 04:21:21;;;;;;;26.15;14.32;;;18.10;83.40;;;;;;5088956;28;20064;-53
2021/06/23 04:23:48;;;;;;;27.80;14.18;;;18.10;82.20;;;;;;5085972;28;20494;-52
2021/06/23 04:26:16;;;;;;;26.23;14.00;;;18.00;82.20;;;;;;5088638;28;20075;-56
2021/06/23 04:28:43;;;;;;;26.40;12.20;;;18.00;82.30;;;;;;5088247;28;20032;-53
2021/06/23 04:31:11;;;;;;;22.38;12.18;;;18.00;81.00;;;;;;5088842;28;20312;-50
2021/06/23 04:33:38;;;;;;;24.92;12.20;;;18.00;81.60;;;;;;5085506;28;20043;-54
2021/06/23 04:36:06;;;;;;;24.08;11.18;;;18.00;82.00;;;;;;5086964;28;20560;-56
2021/06/23 04:38:33;;;;;;;18.35;9.98;;;18.00;81.80;;;;;;5088989;28;20081;-54
2021/06/23 04:41:01;;;;;;;25.00;10.93;;;18.00;81.80;;;;;;5087820;28;20028;-52
2021/06/23 04:43:28;;;;;;;24.08;10.60;;;18.00;81.70;;;;;;5088029;28;20024;-56
2021/06/23 04:45:55;;;;;;;17.95;8.60;;;18.00;81.50;;;;;;5082927;28;20102;-51
2021/06/23 04:48:23;;;;;;;19.00;9.80;;;17.90;81.20;;;;;;5088624;28;20109;-52
2021/06/23 04:50:51;;;;;;;17.02;7.78;;;17.90;82.00;;;;;;5088930;28;20034;-55
2021/06/23 04:53:18;;;;;;;16.15;8.35;;;17.90;81.20;;;;;;5086210;28;20032;-55
2021/06/23 04:55:45;;;;;;;16.30;7.05;;;17.90;81.50;;;;;;5082922;28;20055;-56
2021/06/23 04:58:13;;;;;;;21.17;9.68;;;17.90;79.90;;;;;;5088873;28;20081;-49
2021/06/23 05:00:40;;;;;;;16.48;8.98;;;17.90;81.80;;;;;;5089078;28;20247;-53
2021/06/23 05:03:07;;;;;;;13.18;8.07;;;17.90;82.20;;;;;;5087438;28;20051;-51
2021/06/23 05:05:35;;;;;;;14.15;8.35;;;18.00;83.80;;;;;;5085746;28;20494;-54
2021/06/23 05:08:02;;;;;;;21.00;9.82;;;18.20;83.50;;;;;;5091093;28;20443;-56
2021/06/23 05:10:30;;;;;;;17.15;8.65;;;18.20;82.20;;;;;;5091526;28;20058;-55
2021/06/23 05:12:57;;;;;;;17.52;7.57;;;18.30;81.90;;;;;;5094689;28;20059;-56
2021/06/23 05:15:25;;;;;;;16.67;7.72;;;18.30;81.70;;;;;;5095645;28;20024;-58
2021/06/23 05:17:53;;;;;;;15.98;7.88;;;18.30;81.10;;;;;;5095531;28;20124;-55
2021/06/23 05:20:22;;;;;;;14.30;6.78;;;18.30;80.40;;;;;;5095418;28;20073;-55
2021/06/23 05:22:50;;;;;;;12.02;7.45;;;18.20;79.80;;;;;;5095704;28;20052;-54
2021/06/23 05:25:19;;;;;;;12.15;7.00;;;18.10;80.70;;;;;;5095285;28;20099;-53
2021/06/23 05:27:48;;;;;;;11.30;5.53;;;18.00;80.80;;;;;;5094668;28;20441;-55
2021/06/23 05:30:16;;;;;;;14.15;6.30;;;18.00;80.70;;;;;;5095443;28;20020;-54
2021/06/23 05:32:43;;;;;;;10.68;5.68;;;17.90;80.60;;;;;;5095574;28;20028;-50
2021/06/23 05:35:11;;;;;;;13.07;6.30;;;17.80;81.40;;;;;;5095061;28;20040;-54
2021/06/23 05:37:39;;;;;;;11.73;5.60;;;17.70;82.10;;;;;;5095792;28;20024;-56
2021/06/23 05:40:07;;;;;;;11.52;5.70;;;17.70;82.20;;;;;;5095028;28;20035;-53
2021/06/23 05:42:34;;;;;;;8.93;5.35;;;17.70;82.30;;;;;;5095680;28;20051;-54
2021/06/23 05:45:02;;;;;;;12.10;6.10;;;17.60;82.70;;;;;;5095120;28;20028;-58
2021/06/23 05:47:29;;;;;;;9.52;4.70;;;17.60;82.70;;;;;;5094954;28;20019;-53
2021/06/23 05:49:56;;;;;;;10.68;4.90;;;17.60;82.10;;;;;;5094999;28;20023;-55
2021/06/23 05:52:24;;;;;;;8.73;4.75;;;17.50;82.20;;;;;;5093519;28;20427;-56
2021/06/23 05:54:51;;;;;;;8.65;4.90;;;17.50;82.50;;;;;;5094595;28;20033;-57
2021/06/23 05:57:19;;;;;;;8.80;5.28;;;17.50;82.60;;;;;;5094975;28;20077;-56
2021/06/23 05:59:46;;;;;;;10.93;4.78;;;17.50;83.30;;;;;;5094718;28;20051;-57
2021/06/23 06:02:13;;;;;;;9.55;3.95;;;17.50;82.40;;;;;;5095156;28;20020;-58
2021/06/23 06:04:41;;;;;;;8.32;4.13;;;17.40;83.00;;;;;;5095170;28;20031;-57
2021/06/23 06:07:08;;;;;;;9.65;4.10;;;17.40;83.00;;;;;;5093053;28;20085;-56
2021/06/23 06:09:36;;;;;;;10.43;4.50;;;17.40;82.70;;;;;;5094589;28;20471;-53
2021/06/23 06:12:03;;;;;;;7.13;3.92;;;17.40;82.80;;;;;;5094770;28;20536;-54
2021/06/23 06:14:31;;;;;;;8.73;4.40;;;17.40;83.20;;;;;;5093803;28;20481;-55
2021/06/23 06:17:00;;;;;;;7.63;3.97;;;17.30;83.60;;;;;;5094880;28;20050;-55
2021/06/23 06:19:27;;;;;;;7.75;4.15;;;17.30;83.10;;;;;;5095025;28;20028;-55
2021/06/23 06:21:55;;;;;;;18.67;4.82;;;17.30;83.40;;;;;;5094557;28;20371;-52
2021/06/23 06:24:22;;;;;;;11.05;4.50;;;17.30;83.30;;;;;;5084950;28;20066;-59
2021/06/23 06:26:50;;;;;;;10.95;3.60;;;17.30;83.60;;;;;;5089520;28;20063;-51
2021/06/23 06:29:17;;;;;;;10.18;4.53;;;17.30;83.10;;;;;;5090748;28;20103;-57
2021/06/23 06:31:45;;;;;;;11.48;5.07;;;17.30;83.30;;;;;;5092695;28;20368;-52
2021/06/23 06:34:12;;;;;;;10.65;5.53;;;17.30;83.60;;;;;;5088959;28;20478;-54
2021/06/23 06:36:40;;;;;;;10.18;6.75;;;17.30;83.10;;;;;;5089776;28;20538;-58
2021/06/23 06:39:08;;;;;;;13.70;8.73;;;17.30;83.40;;;;;;5090432;28;20102;-56
2021/06/23 06:41:35;;;;;;;14.77;9.40;;;17.30;84.00;;;;;;5090659;28;20020;-56
2021/06/23 06:44:02;;;;;;;15.77;10.73;;;17.30;84.00;;;;;;5088868;28;20114;-54
2021/06/23 06:46:30;;;;;;;16.80;9.90;;;17.20;84.20;;;;;;5089264;28;20034;-52
2021/06/23 06:48:57;;;;;;;14.95;10.98;;;17.20;83.80;;;;;;5090795;28;20096;-56
2021/06/23 06:51:25;;;;;;;12.48;9.20;;;17.20;84.50;;;;;;5089901;28;20112;-56
2021/06/23 06:53:53;;;;;;;15.50;11.05;;;17.20;84.30;;;;;;5087479;28;20040;-54
2021/06/23 06:56:20;;;;;;;13.52;11.38;;;17.20;84.50;;;;;;5086353;28;20036;-51
2021/06/23 06:58:49;;;;;;;17.23;15.52;;;17.20;84.70;;;;;;5090570;28;20379;-54
2021/06/23 07:01:17;;;;;;;14.15;12.30;;;17.20;85.30;;;;;;5089375;28;20052;-57
2021/06/23 07:03:44;;;;;;;17.52;7.25;;;17.10;84.50;;;;;;5086693;28;20097;-55
2021/06/23 07:06:11;;;;;;;15.75;12.35;;;17.20;80.90;;;;;;5086708;28;20048;-53
2021/06/23 07:08:39;;;;;;;15.82;8.45;;;17.20;81.70;;;;;;5089208;28;20119;-53
2021/06/23 07:11:09;;;;;;;12.45;6.47;;;17.30;81.30;;;;;;5089765;28;20032;-56
2021/06/23 07:13:36;;;;;;;13.00;4.88;;;17.30;80.80;;;;;;5089144;28;20105;-52
2021/06/23 07:16:04;;;;;;;14.80;4.03;;;17.10;81.90;;;;;;5087013;28;20028;-56
2021/06/23 07:18:31;;;;;;;12.05;4.65;;;17.20;82.60;;;;;;5090739;28;20023;-56
2021/06/23 07:20:59;;;;;;;9.75;4.63;;;17.10;82.60;;;;;;5089313;28;20027;-54
2021/06/23 07:23:26;;;;;;;28.90;18.08;;;17.10;82.90;;;;;;5089761;28;20031;-55
2021/06/23 07:25:54;;;;;;;22.13;11.27;;;17.20;86.90;;;;;;5085242;28;20765;-57
2021/06/23 07:28:32;;;;;;;10.52;4.70;;;17.20;84.00;;;;;;5089075;28;20044;-56
2021/06/23 07:31:04;;;;;;;18.80;9.82;;;17.20;84.10;;;;;;5087839;28;20020;-55
2021/06/23 07:33:32;;;;;;;18.30;8.18;;;17.20;85.40;;;;;;5087863;28;20033;-58
2021/06/23 07:39:04;;;;;;;24.27;6.55;;;17.10;86.40;;;;;;5085171;28;20063;-54
2021/06/23 07:41:31;;;;;;;25.08;12.73;;;17.20;85.50;;;;;;5089407;28;20418;-54
2021/06/23 07:43:59;;;;;;;14.98;7.95;;;17.30;87.70;;;;;;5086467;28;20043;-56
2021/06/23 07:46:36;;;;;;;7.75;3.25;;;17.30;85.70;;;;;;5088520;28;20442;-50
2021/06/23 07:49:08;;;;;;;28.38;8.68;;;17.30;85.10;;;;;;5086137;28;20024;-55
2021/06/23 07:54:30;;;;;;;25.85;9.35;;;17.30;88.50;;;;;;5085059;28;20046;-52
2021/06/23 08:10:49;;;;;;;17.77;6.80;;;17.20;87.20;;;;;;5087945;28;20051;-55
2021/06/23 08:13:17;;;;;;;10.95;3.15;;;17.10;87.00;;;;;;5088905;28;20039;-59
2021/06/23 08:15:47;;;;;;;16.98;7.00;;;17.10;86.50;;;;;;5084214;28;20475;-56
2021/06/23 08:18:16;;;;;;;32.47;7.25;;;17.00;87.50;;;;;;5087927;28;20035;-59
2021/06/23 08:20:43;;;;;;;29.40;8.88;;;17.00;89.40;;;;;;5087730;28;20382;-57
2021/06/23 08:23:11;;;;;;;10.00;4.22;;;17.00;89.50;;;;;;5086654;28;20032;-53
2021/06/23 08:25:39;;;;;;;30.25;5.38;;;16.90;87.00;;;;;;5082973;28;20024;-61
2021/06/23 08:28:06;;;;;;;14.40;6.03;;;16.90;88.90;;;;;;5088874;28;20085;-53
2021/06/23 08:30:34;;;;;;;19.60;7.63;;;16.90;88.90;;;;;;5088561;28;20043;-60
2021/06/23 08:33:02;;;;;;;12.30;5.22;;;16.90;87.50;;;;;;5086013;28;20098;-56
2021/06/23 08:35:29;;;;;;;7.90;4.65;;;17.00;88.50;;;;;;5083924;28;20064;-61
2021/06/23 08:37:57;;;;;;;19.65;4.18;;;17.00;87.30;;;;;;5089180;28;20109;-57
2021/06/23 08:40:25;;;;;;;17.38;4.35;;;17.00;87.40;;;;;;5088778;28;20026;-55
2021/06/23 08:42:52;;;;;;;15.80;7.35;;;16.90;87.10;;;;;;5089188;28;20039;-52
2021/06/23 08:45:20;;;;;;;22.65;6.35;;;16.90;88.00;;;;;;5081253;28;20114;-50
2021/06/23 08:47:49;;;;;;;14.88;5.43;;;16.90;88.10;;;;;;5086290;28;20451;-54
2021/06/23 08:50:19;;;;;;;23.13;8.43;;;17.00;88.90;;;;;;5089042;28;20050;-58
2021/06/23 08:52:47;;;;;;;18.42;9.30;;;17.00;90.10;;;;;;5088589;28;20101;-55
2021/06/23 08:55:19;;;;;;;15.43;6.10;;;17.10;90.10;;;;;;5084124;28;20038;-54
2021/06/23 08:57:49;;;;;;;19.75;11.27;;;17.10;87.70;;;;;;5086381;28;20028;-57
2021/06/23 09:00:17;;;;;;;23.67;10.18;;;17.10;88.60;;;;;;5088379;28;20036;-57
2021/06/23 09:02:46;;;;;;;26.70;18.25;;;17.20;88.10;;;;;;5086580;28;20089;-57
2021/06/23 09:05:15;;;;;;;24.42;15.63;;;17.30;90.70;;;;;;5083680;28;20025;-60
2021/06/23 09:07:52;;;;;;;18.90;5.40;;;17.40;90.10;;;;;;5087489;28;20435;-55
2021/06/23 09:10:26;;;;;;;29.80;5.85;;;17.10;85.60;;;;;;5087646;28;20023;-52
2021/06/23 09:13:09;;;;;;;11.77;5.20;;;17.10;86.80;;;;;;5087972;28;20024;-50
2021/06/23 09:15:53;;;;;;;16.13;10.63;;;17.00;88.40;;;;;;5084654;28;20488;-52
2021/06/23 09:18:26;;;;;;;23.52;13.00;;;17.20;90.00;;;;;;5087931;28;20035;-50
2021/06/23 09:21:18;;;;;;;14.25;5.18;;;17.20;90.50;;;;;;5088175;28;20036;-53
2021/06/23 09:23:52;;;;;;;16.63;10.27;;;17.10;87.40;;;;;;5076039;28;20110;-56
2021/06/23 09:26:24;;;;;;;20.08;13.38;;;17.20;89.00;;;;;;5085732;28;20040;-46
2021/06/23 09:29:11;;;;;;;31.70;14.00;;;17.20;90.00;;;;;;5088663;28;20081;-56
2021/06/23 09:32:03;;;;;;;12.75;8.93;;;17.20;89.70;;;;;;5086450;28;20461;-54
2021/06/23 09:34:34;;;;;;;20.10;14.20;;;17.20;86.20;;;;;;5084317;28;20124;-51
2021/06/23 09:37:22;;;;;;;18.83;14.07;;;17.30;90.10;;;;;;5085000;28;20157;-56
2021/06/23 09:39:49;;;;;;;12.73;6.50;;;17.30;90.50;;;;;;5086069;28;20024;-57
2021/06/23 09:42:17;;;;;;;23.13;12.30;;;17.40;88.40;;;;;;5088313;28;20403;-54
2021/06/23 09:44:47;;;;;;;23.52;9.95;;;17.40;91.20;;;;;;5084464;28;20093;-55
2021/06/23 09:47:15;;;;;;;18.88;8.95;;;17.40;88.80;;;;;;5087398;28;20028;-56
2021/06/23 09:49:45;;;;;;;11.68;6.85;;;17.30;85.00;;;;;;5088414;28;20482;-57
2021/06/23 09:52:14;;;;;;;17.95;12.68;;;17.30;88.60;;;;;;5086095;28;20031;-55
2021/06/23 09:55:00;;;;;;;24.80;10.77;;;17.40;90.10;;;;;;5084634;28;20032;-56
2021/06/23 09:57:28;;;;;;;18.70;10.60;;;17.20;85.10;;;;;;5087748;28;20024;-55
2021/06/23 10:00:08;;;;;;;19.38;10.30;;;17.20;90.00;;;;;;5089210;28;20040;-57
2021/06/23 10:02:36;;;;;;;21.40;12.40;;;17.20;91.10;;;;;;5089206;28;20036;-57
2021/06/23 10:05:26;;;;;;;21.75;12.43;;;17.20;90.20;;;;;;5085722;28;20069;-57
2021/06/23 10:07:54;;;;;;;23.42;11.75;;;17.40;89.70;;;;;;5082106;28;20557;-55
2021/06/23 10:10:42;;;;;;;16.70;10.27;;;17.30;91.30;;;;;;5089931;28;20036;-51
2021/06/23 10:13:10;;;;;;;19.85;4.78;;;17.10;84.00;;;;;;5089238;28;20538;-53
2021/06/23 10:15:37;;;;;;;15.13;8.68;;;17.10;83.40;;;;;;5087502;28;20071;-54
2021/06/23 10:18:05;;;;;;;15.73;10.30;;;17.10;90.20;;;;;;5090231;28;20032;-54
2021/06/23 10:20:33;;;;;;;18.52;10.73;;;17.30;90.90;;;;;;5092050;28;20016;-53
2021/06/23 10:23:04;;;;;;;15.57;10.00;;;17.30;90.50;;;;;;5090765;28;20024;-55
2021/06/23 10:25:31;;;;;;;13.43;11.13;;;17.30;88.10;;;;;;5086899;28;20534;-51
2021/06/23 10:28:00;;;;;;;17.33;9.70;;;17.20;91.00;;;;;;5089550;28;20082;-56
2021/06/23 10:30:32;;;;;;;10.90;6.18;;;17.10;84.40;;;;;;5091419;28;20020;-57
2021/06/23 10:32:59;;;;;;;14.27;9.00;;;17.20;90.40;;;;;;5090828;28;20031;-54
2021/06/23 10:35:27;;;;;;;20.98;8.32;;;17.20;90.90;;;;;;5087369;28;20036;-51
2021/06/23 10:37:56;;;;;;;12.80;7.40;;;17.30;90.80;;;;;;5090539;28;20540;-55
2021/06/23 10:40:27;;;;;;;9.70;6.82;;;17.30;89.80;;;;;;5091761;28;20036;-57
2021/06/23 10:43:09;;;;;;;15.50;6.50;;;17.20;90.00;;;;;;5090493;28;20387;-55
2021/06/23 10:45:45;;;;;;;13.82;7.82;;;17.30;90.80;;;;;;5086326;28;20016;-53
2021/06/23 10:48:13;;;;;;;11.07;5.85;;;17.30;90.80;;;;;;5088241;28;20038;-52
2021/06/23 10:50:41;;;;;;;9.98;6.00;;;17.30;90.40;;;;;;5090076;28;20081;-54
2021/06/23 10:53:29;;;;;;;7.95;4.90;;;17.30;90.50;;;;;;5088560;28;20028;-53
2021/06/23 10:55:57;;;;;;;7.00;4.95;;;17.30;90.20;;;;;;5086560;28;20474;-55
2021/06/23 10:58:33;;;;;;;7.55;4.95;;;17.30;90.10;;;;;;5090939;28;20032;-55
2021/06/23 11:01:27;;;;;;;7.22;4.13;;;17.30;90.00;;;;;;5090351;28;20028;-52
2021/06/23 11:04:04;;;;;;;7.55;4.07;;;17.30;90.00;;;;;;5083485;28;20040;-51
2021/06/23 11:06:58;;;;;;;6.97;4.00;;;17.30;89.80;;;;;;5087329;28;20024;-48
2021/06/23 11:09:29;;;;;;;5.15;3.65;;;17.20;90.10;;;;;;5085990;28;20032;-53
2021/06/23 11:11:58;;;;;;;5.25;3.85;;;17.20;89.20;;;;;;5090652;28;20028;-52
2021/06/23 11:14:31;;;;;;;7.05;3.83;;;17.20;89.20;;;;;;5086650;28;20375;-57
2021/06/23 11:17:31;;;;;;;5.30;3.42;;;17.20;88.70;;;;;;5089150;28;20024;-53
2021/06/23 11:19:59;;;;;;;5.70;3.08;;;17.20;88.90;;;;;;5091590;28;20024;-57
2021/06/23 11:22:35;;;;;;;11.15;3.95;;;17.20;88.70;;;;;;5090327;28;20363;-53
2021/06/23 11:25:25;;;;;;;7.38;3.45;;;17.20;88.60;;;;;;5086786;28;20024;-50
2021/06/23 11:28:12;;;;;;;4.57;2.80;;;17.20;88.40;;;;;;5089079;28;20128;-54
2021/06/23 11:30:52;;;;;;;2.85;2.50;;;17.20;88.30;;;;;;5090406;28;20050;-51
2021/06/23 11:33:28;;;;;;;3.95;2.42;;;17.20;87.90;;;;;;5090533;28;20415;-50
2021/06/23 11:36:01;;;;;;;4.70;2.60;;;17.20;87.90;;;;;;5086094;28;20032;-52
2021/06/23 11:38:29;;;;;;;3.45;2.30;;;17.20;87.60;;;;;;5090820;28;20102;-52
2021/06/23 11:40:57;;;;;;;5.15;2.50;;;17.20;87.60;;;;;;5090123;28;20386;-52
2021/06/23 11:43:26;;;;;;;7.10;2.38;;;17.20;87.40;;;;;;5089622;28;20114;-57
2021/06/23 11:45:54;;;;;;;5.63;2.40;;;17.10;87.10;;;;;;5086769;28;20016;-52
2021/06/23 11:48:23;;;;;;;3.45;1.98;;;17.20;87.00;;;;;;5089947;28;20032;-52
2021/06/23 11:50:53;;;;;;;6.47;2.42;;;17.10;86.80;;;;;;5090455;28;20028;-52
2021/06/23 11:53:22;;;;;;;3.83;2.28;;;17.10;87.00;;;;;;5089889;28;20039;-51
2021/06/23 11:55:51;;;;;;;4.10;1.95;;;17.10;87.00;;;;;;5086408;28;20024;-56
2021/06/23 11:58:19;;;;;;;2.75;2.17;;;17.20;87.20;;;;;;5089922;28;20036;-57
2021/06/23 12:00:47;;;;;;;11.77;2.53;;;17.10;87.00;;;;;;5091337;28;20024;-57
2021/06/23 12:03:17;;;;;;;4.07;1.90;;;17.10;87.20;;;;;;5092047;28;20656;-57
2021/06/23 12:05:48;;;;;;;8.13;2.05;;;17.10;87.00;;;;;;5093490;28;20081;-57
2021/06/23 12:08:16;;;;;;;4.90;2.33;;;17.10;87.10;;;;;;5093574;28;20054;-56
2021/06/23 12:10:45;;;;;;;4.68;2.30;;;17.10;86.90;;;;;;5093072;28;20489;-57
2021/06/23 12:13:14;;;;;;;4.00;2.53;;;17.10;87.30;;;;;;5093370;28;20120;-57
2021/06/23 12:15:42;;;;;;;2.95;1.85;;;17.00;87.20;;;;;;5093300;28;20110;-58
2021/06/23 12:18:11;;;;;;;2.70;2.20;;;17.00;87.00;;;;;;5092820;28;20040;-60
2021/06/23 12:20:42;;;;;;;3.95;2.30;;;17.00;87.20;;;;;;5092415;28;20512;-59
2021/06/23 12:23:12;;;;;;;3.30;2.30;;;17.00;87.30;;;;;;5092059;28;20497;-58
2021/06/23 12:25:42;;;;;;;4.38;2.00;;;17.00;87.40;;;;;;5092577;28;20101;-60
2021/06/23 12:28:11;;;;;;;4.45;2.10;;;17.00;87.30;;;;;;5091962;28;20065;-58
2021/06/23 12:30:41;;;;;;;2.50;2.05;;;17.00;87.50;;;;;;5092592;28;20476;-58
2021/06/23 12:33:11;;;;;;;2.90;2.00;;;17.00;87.30;;;;;;5092527;28;20039;-58
2021/06/23 12:35:40;;;;;;;2.78;2.05;;;16.90;87.10;;;;;;5092736;28;20479;-59
2021/06/23 12:38:13;;;;;;;2.80;2.13;;;16.90;87.50;;;;;;5092451;28;20016;-55
2021/06/23 12:40:42;;;;;;;4.85;1.90;;;16.90;87.40;;;;;;5092520;28;20103;-58
2021/06/23 12:43:11;;;;;;;6.18;2.45;;;16.90;87.50;;;;;;5092484;28;20016;-60
2021/06/23 12:45:40;;;;;;;3.97;1.98;;;16.90;87.50;;;;;;5092630;28;20593;-58
2021/06/23 12:48:07;;;;;;;4.05;2.05;;;16.90;87.60;;;;;;5092685;28;20035;-58
2021/06/23 12:50:35;;;;;;;3.38;1.80;;;16.90;87.60;;;;;;5092495;28;20031;-58
2021/06/23 12:53:03;;;;;;;4.13;1.90;;;16.90;87.50;;;;;;5091941;28;20041;-52
2021/06/23 12:55:31;;;;;;;3.25;1.98;;;16.90;87.60;;;;;;5092692;28;20534;-58
2021/06/23 12:57:58;;;;;;;7.20;2.60;;;16.90;87.20;;;;;;5092415;28;20035;-56
2021/06/23 13:00:27;;;;;;;5.00;1.92;;;16.80;87.40;;;;;;5092647;28;20355;-57
2021/06/23 13:02:55;;;;;;;3.22;1.80;;;16.80;87.20;;;;;;5092329;28;20097;-55
2021/06/23 13:05:23;;;;;;;5.80;1.80;;;16.80;87.50;;;;;;5087052;28;20470;-54
2021/06/23 13:07:51;;;;;;;2.85;1.75;;;16.80;86.70;;;;;;5087498;28;20027;-50
2021/06/23 13:10:20;;;;;;;3.70;1.63;;;16.80;87.50;;;;;;5088092;28;20111;-57
2021/06/23 13:12:48;;;;;;;2.30;2.10;;;16.80;87.10;;;;;;5090797;28;20024;-52